Nearby METAR Reports

 

KLXT - Lees Summit Muni, Missouri, USA
Distance from station: E 5mi, 9km
Updated: Fri, 05-Feb-2016 7:53pm CST
Mostly cloudy
Mostly cloudy
 Wind from ENE
Wind: ENE 3 mph , 6 km/h
Temperature: 37°F , 3°C
Dew Point: 23°F , -5°C
Humidity: 56%
Barometer: 30.28 inHg , 1025.4 hPa
Clouds: Mostly cloudy
Visibility: 10 miles , 16 km
Cloud details: Few Clouds 8000 ft
Mostly cloudy 12000 ft
2016/02/06 01:53 KLXT 060153Z AUTO 07003KT 10SM FEW080 BKN120 03/M05 A3028 RMK AO2 SLP264 T00331050
KMKC - Kansas City/Dntn, Missouri, USA
Distance from station: NW 12mi, 19km
Updated: Fri, 05-Feb-2016 7:54pm CST
Overcast
Overcast
 Wind from calm
Wind: Calm
Temperature: 37°F , 3°C
Dew Point: 25°F , -4°C
Humidity: 60%
Barometer: 30.28 inHg , 1025.4 hPa
Clouds: Overcast
Visibility: 10 miles , 16 km
Cloud details: Overcast 11000 ft
2016/02/06 01:54 KMKC 060154Z 00000KT 10SM OVC110 03/M04 A3028 RMK AO2 SLP261 T00331044
 
KIXD - Olathe/Industria, Kansas, USA
Distance from station: WSW 25mi, 41km
Updated: Fri, 05-Feb-2016 7:53pm CST
Mostly cloudy
Mostly cloudy
 Wind from E
Wind: E 5 mph , 7 km/h
Temperature: 34°F , 1°C
Wind Chill: 29°F , -2°C
Dew Point: 23°F , -5°C
Humidity: 65%
Barometer: 30.28 inHg , 1025.4 hPa
Clouds: Mostly cloudy
Visibility: 10 miles , 16 km
Cloud details: Mostly cloudy 10000 ft
2016/02/06 01:53 KIXD 060153Z 09004KT 10SM BKN100 01/M05 A3028 RMK AO2 SLP262 T00061050
KMCI - Kansas City/Intl, Missouri, USA
Distance from station: NW 26mi, 42km
Updated: Fri, 05-Feb-2016 7:53pm CST
Overcast
Overcast
 Wind from ENE
Wind: ENE 5 mph , 7 km/h
Temperature: 37°F , 3°C
Wind Chill: 33°F , 1°C
Dew Point: 25°F , -4°C
Humidity: 60%
Barometer: 30.27 inHg , 1025.1 hPa
Clouds: Overcast
Visibility: 10 miles , 16 km
Cloud details: Overcast 9000 ft
2016/02/06 01:53 KMCI 060153Z 07004KT 10SM OVC090 03/M04 A3027 RMK AO2 SLP260 T00281044
 
KRCM - Warrensburg Skyh, Missouri, USA
Distance from station: ESE 38mi, 62km
Updated: Fri, 05-Feb-2016 8:15pm CST
Mostly cloudy
Mostly cloudy
 Wind from calm
Wind: Calm
Temperature: 36°F , 2°C
Dew Point: 23°F , -5°C
Humidity: 60%
Barometer: 30.29 inHg , 1025.7 hPa
Clouds: Mostly cloudy
Visibility: 10 miles , 16 km
Cloud details: Mostly cloudy 12000 ft
2016/02/06 02:15 KRCM 060215Z AUTO 00000KT 10SM BKN120 02/M05 A3029 RMK AO2
KLWC - Lawrence, Kansas, USA
Distance from station: W 40mi, 65km
Updated: Fri, 05-Feb-2016 7:52pm CST
Overcast
Overcast
 Wind from calm
Wind: Calm
Temperature: 32°F , 0°C
Dew Point: 23°F , -5°C
Humidity: 69%
Barometer: 30.28 inHg , 1025.4 hPa
Clouds: Overcast
Visibility: 10 miles , 16 km
Cloud details: Overcast 11000 ft
2016/02/06 01:52 KLWC 060152Z AUTO 00000KT 10SM OVC110 00/M05 A3028 RMK AO2 SLP264 T00001050 $
 
KSZL - Whiteman Afb, Missouri, USA
Distance from station: ESE 53mi, 86km
Updated: Fri, 05-Feb-2016 7:58pm CST
Overcast
Overcast
 Wind from SSE
Wind: SSE 6 mph , 9 km/h
Temperature: 39°F , 4°C
Wind Chill: 35°F , 2°C
Dew Point: 23°F , -5°C
Humidity: 52%
Barometer: 30.27 inHg , 1025.1 hPa
Clouds: Overcast
Visibility: 10 miles , 16 km
Cloud details: Overcast 9500 ft
2016/02/06 01:58 KSZL 060158Z 16005KT 10SM OVC095 04/M05 A3027 RMK AO2A SLP262 T00391051 $
KSTJ - St. Joseph, Missouri, USA
Distance from station: NNW 59mi, 95km
Updated: Fri, 05-Feb-2016 7:53pm CST
Overcast
Overcast
 Wind from SE
Wind: SE 3 mph , 6 km/h
Temperature: 36°F , 2°C
Dew Point: 25°F , -4°C
Humidity: 65%
Barometer: 30.28 inHg , 1025.4 hPa
Clouds: Overcast
Visibility: 10 miles , 16 km
Cloud details: Partly cloudy 6500 ft
Overcast 10000 ft
2016/02/06 01:53 KSTJ 060153Z AUTO 14003KT 10SM SCT065 OVC100 02/M04 A3028 RMK AO2 SLP264 T00171044
 
KGLY - Clinton, Missouri, USA
Distance from station: SE 61mi, 98km
Updated: Fri, 05-Feb-2016 8:15pm CST

 Wind from E
Wind: E 3 mph , 6 km/h
Temperature: 34°F , 1°C
Dew Point: 27°F , -3°C
Humidity: 75%
Barometer: 30.30 inHg , 1026.1 hPa
Visibility: 10 miles , 16 km
2016/02/06 02:15 KGLY 060215Z AUTO 10003KT 10SM 01/M03 A3030 RMK AO2
KFOE - Topeka/Forbes, Kansas, USA
Distance from station: W 64mi, 103km
Updated: Fri, 05-Feb-2016 7:53pm CST
Overcast
Overcast
 Wind from ESE
Wind: ESE 3 mph , 6 km/h
Temperature: 34°F , 1°C
Dew Point: 23°F , -5°C
Humidity: 65%
Barometer: 30.26 inHg , 1024.7 hPa
Clouds: Overcast
Visibility: 10 miles , 16 km
Cloud details: Overcast 10000 ft
2016/02/06 01:53 KFOE 060153Z 11003KT 10SM OVC100 01/M05 A3026 RMK AO2 SLP258 T00111050
 
KDMO - Sedalia, Missouri, USA
Distance from station: ESE 72mi, 116km
Updated: Fri, 05-Feb-2016 7:53pm CST
Overcast
Overcast
 Wind from ESE
Wind: ESE 7 mph , 11 km/h
Temperature: 37°F , 3°C
Wind Chill: 32°F , 0°C
Dew Point: 21°F , -6°C
Humidity: 52%
Barometer: 30.30 inHg , 1026.1 hPa
Clouds: Overcast
Visibility: 10 miles , 16 km
Cloud details: Mostly cloudy 9000 ft
Overcast 11000 ft
2016/02/06 01:53 KDMO 060153Z AUTO 12006KT 10SM BKN090 OVC110 03/M06 A3030 RMK AO2 SLP271 T00281056
KCDJ - Chillicothe, Missouri, USA
Distance from station: NE 74mi, 120km
Updated: Fri, 05-Feb-2016 7:52pm CST

 Wind from calm
Wind: Calm
Temperature: 34°F , 1°C
Dew Point: 21°F , -6°C
Humidity: 60%
Barometer: 30.31 inHg , 1026.4 hPa
2016/02/06 01:52 KCDJ 060152Z AUTO 00000KT 01/M06 A3031 RMK AO1 SLP282 T00111056
 
KFNB - Falls City/Brenn, Nebraska, USA
Distance from station: NW 96mi, 154km
Updated: Fri, 05-Feb-2016 7:53pm CST
Overcast
Overcast
 Wind from S
Wind: S 6 mph , 9 km/h
Temperature: 36°F , 2°C
Wind Chill: 31°F , -1°C
Dew Point: 25°F , -4°C
Humidity: 65%
Barometer: 30.26 inHg , 1024.7 hPa
Clouds: Overcast
Visibility: 10 miles , 16 km
Cloud details: Few Clouds 6500 ft
Mostly cloudy 9000 ft
Overcast 11000 ft
2016/02/06 01:53 KFNB 060153Z AUTO 17005KT 10SM FEW065 BKN090 OVC110 02/M04 A3026 RMK AO2 SLP256 T00171039
KVER - Boonville, Missouri, USA
Distance from station: E 96mi, 154km
Updated: Fri, 05-Feb-2016 8:15pm CST

 Wind from E
Wind: E 6 mph , 9 km/h
Temperature: 37°F , 3°C
Wind Chill: 32°F , 0°C
Dew Point: 18°F , -8°C
Humidity: 45%
Barometer: 30.30 inHg , 1026.1 hPa
Visibility: 10 miles , 16 km
2016/02/06 02:15 KVER 060215Z AUTO 09005KT 10SM 03/M08 A3030 RMK AO2 T00251080